createdAt,value
2023-05-16T00:00:38.096Z,0
2023-05-16T00:01:44.233Z,0
2023-05-16T00:03:56.512Z,0
2023-05-16T00:05:02.663Z,0
2023-05-16T00:06:08.810Z,0
2023-05-16T00:07:14.965Z,0
2023-05-16T00:11:39.521Z,0
2023-05-16T00:12:44.705Z,0
2023-05-16T00:14:56.981Z,0
2023-05-16T00:16:03.139Z,0
2023-05-16T00:17:09.261Z,0
2023-05-16T00:21:33.829Z,0
2023-05-16T00:22:39.976Z,0
2023-05-16T00:23:46.129Z,0
2023-05-16T00:27:04.555Z,0
2023-05-16T00:28:09.700Z,0
2023-05-16T00:30:22.009Z,0
2023-05-16T00:31:28.135Z,0
2023-05-16T00:38:05.002Z,0
2023-05-16T00:42:29.583Z,0
2023-05-16T00:44:40.868Z,0
2023-05-16T00:45:47.021Z,0
2023-05-16T00:46:53.169Z,0
2023-05-16T00:47:59.312Z,0
2023-05-16T00:52:23.900Z,0
2023-05-16T00:54:36.158Z,0
2023-05-16T01:00:06.893Z,0
2023-05-16T01:01:12.039Z,0
2023-05-16T01:02:18.187Z,0
2023-05-16T01:03:24.349Z,0
2023-05-16T01:04:30.458Z,0
2023-05-16T01:05:36.610Z,0
2023-05-16T01:07:48.899Z,0
2023-05-16T01:10:01.191Z,0
2023-05-16T01:11:07.332Z,0
2023-05-16T01:13:19.608Z,0
2023-05-16T01:15:31.896Z,0
2023-05-16T01:16:37.072Z,0
2023-05-16T01:17:43.198Z,0
2023-05-16T01:21:01.623Z,0
2023-05-16T01:22:07.783Z,0
2023-05-16T01:23:13.910Z,0
2023-05-16T01:24:20.052Z,0
2023-05-16T01:25:26.206Z,0
2023-05-16T01:26:32.569Z,0
2023-05-16T01:27:38.485Z,0
2023-05-16T01:29:50.767Z,0
2023-05-16T01:32:02.084Z,0
2023-05-16T01:34:14.350Z,0
2023-05-16T01:37:31.812Z,0
2023-05-16T01:38:36.979Z,0
2023-05-16T01:39:43.124Z,0
2023-05-16T01:40:49.262Z,0
2023-05-16T01:41:55.424Z,0
2023-05-16T01:44:07.688Z,0
2023-05-16T01:45:13.844Z,0
2023-05-16T01:46:19.990Z,0
2023-05-16T01:48:32.276Z,0
2023-05-16T01:50:44.545Z,0
2023-05-16T01:51:50.706Z,0
2023-05-16T01:54:01.995Z,0
2023-05-16T01:56:14.281Z,0
2023-05-16T01:59:32.714Z,0
2023-05-16T02:06:09.583Z,0
2023-05-16T02:07:14.732Z,0
2023-05-16T02:08:20.892Z,0
2023-05-16T02:09:27.032Z,0
2023-05-16T02:10:33.156Z,0
2023-05-16T02:13:51.615Z,0
2023-05-16T02:14:57.756Z,0
2023-05-16T02:16:03.900Z,0
2023-05-16T02:17:10.025Z,0
2023-05-16T02:18:16.171Z,0
2023-05-16T02:23:46.879Z,0
2023-05-16T02:24:52.042Z,0
2023-05-16T02:25:58.186Z,0
2023-05-16T02:27:04.324Z,0
2023-05-16T02:29:16.630Z,0
2023-05-16T02:30:22.745Z,0
2023-05-16T02:32:35.041Z,0
2023-05-16T02:33:41.176Z,0
2023-05-16T02:39:11.912Z,0
2023-05-16T02:40:17.058Z,0
2023-05-16T02:41:23.207Z,0
2023-05-16T02:43:35.501Z,0
2023-05-16T02:46:53.913Z,0
2023-05-16T02:49:06.217Z,0
2023-05-16T02:50:12.346Z,0
2023-05-16T02:54:36.918Z,0
2023-05-16T02:56:48.228Z,0
2023-05-16T02:59:00.519Z,0
2023-05-16T03:00:06.644Z,0
2023-05-16T03:03:25.077Z,0
2023-05-16T03:04:31.225Z,0
2023-05-16T03:06:43.513Z,0
2023-05-16T03:08:55.817Z,0
2023-05-16T03:11:07.103Z,0
2023-05-16T03:13:19.382Z,0
2023-05-16T03:16:37.814Z,0
2023-05-16T03:18:50.097Z,0
2023-05-16T03:19:56.249Z,0
2023-05-16T03:21:02.385Z,0
2023-05-16T03:22:08.551Z,0
2023-05-16T03:23:14.675Z,0
2023-05-16T03:24:19.868Z,0
2023-05-16T03:25:26.007Z,0
2023-05-16T03:27:38.264Z,4
2023-05-16T03:33:09.035Z,4
2023-05-16T03:34:15.197Z,4
2023-05-16T03:35:21.326Z,8
2023-05-16T03:36:27.462Z,4
2023-05-16T03:38:39.754Z,8
2023-05-16T03:39:44.909Z,12
2023-05-16T03:40:51.061Z,8
2023-05-16T03:41:57.202Z,16
2023-05-16T03:44:09.497Z,16
2023-05-16T03:46:21.781Z,24
2023-05-16T03:48:34.106Z,36
2023-05-16T03:49:40.202Z,40
2023-05-16T03:50:46.343Z,48
2023-05-16T03:52:58.628Z,56
2023-05-16T03:54:04.775Z,60
2023-05-16T03:55:09.965Z,68
2023-05-16T03:56:16.077Z,68
2023-05-16T03:57:22.245Z,72
2023-05-16T04:01:46.798Z,92
2023-05-16T04:02:52.936Z,104
2023-05-16T04:05:05.230Z,128
2023-05-16T04:06:11.373Z,140
2023-05-16T04:08:23.654Z,172
2023-05-16T04:10:34.960Z,204
2023-05-16T04:11:41.137Z,220
2023-05-16T04:12:47.242Z,232
2023-05-16T04:18:17.957Z,276
2023-05-16T04:19:24.108Z,284
2023-05-16T04:22:42.539Z,364
2023-05-16T04:24:53.845Z,396
2023-05-16T04:25:59.972Z,412
2023-05-16T04:27:06.128Z,424
2023-05-16T04:28:12.262Z,440
2023-05-16T04:29:18.403Z,456
2023-05-16T04:30:24.568Z,468
2023-05-16T04:33:42.977Z,536
2023-05-16T04:34:49.141Z,568
2023-05-16T04:35:55.266Z,608
2023-05-16T04:38:07.553Z,684
2023-05-16T04:39:12.724Z,712
2023-05-16T04:42:31.141Z,712
2023-05-16T04:43:37.284Z,700
2023-05-16T04:45:49.566Z,692
2023-05-16T04:48:01.862Z,716
2023-05-16T04:50:14.145Z,760
2023-05-16T04:52:26.435Z,784
2023-05-16T04:53:31.587Z,800
2023-05-16T04:55:43.887Z,856
2023-05-16T04:56:50.039Z,888
2023-05-16T04:57:56.163Z,944
2023-05-16T04:59:02.305Z,1024
2023-05-16T05:00:08.464Z,1080
2023-05-16T05:02:20.739Z,1180
2023-05-16T05:03:26.892Z,1216
2023-05-16T05:04:33.029Z,1260
2023-05-16T05:07:51.471Z,1356
2023-05-16T05:08:56.611Z,1376
2023-05-16T05:10:02.754Z,1392
2023-05-16T05:13:21.184Z,1248
2023-05-16T05:14:27.341Z,1172
2023-05-16T05:15:33.476Z,1104
2023-05-16T05:17:45.760Z,1032
2023-05-16T05:18:51.901Z,1012
2023-05-16T05:19:57.080Z,980
2023-05-16T05:23:15.491Z,836
2023-05-16T05:24:21.652Z,788
2023-05-16T05:27:40.062Z,748
2023-05-16T05:28:46.215Z,716
2023-05-16T05:30:58.512Z,696
2023-05-16T05:32:04.650Z,728
2023-05-16T05:34:16.940Z,788
2023-05-16T05:35:22.101Z,820
2023-05-16T05:36:28.244Z,836
2023-05-16T05:39:46.704Z,888
2023-05-16T05:40:52.801Z,908
2023-05-16T05:41:58.962Z,932
2023-05-16T05:43:05.092Z,980
2023-05-16T05:44:11.234Z,1032
2023-05-16T05:45:17.387Z,1060
2023-05-16T05:47:29.663Z,1116
2023-05-16T05:48:35.806Z,1144
2023-05-16T05:51:53.260Z,1184
2023-05-16T05:52:59.398Z,1164
2023-05-16T05:56:17.833Z,1244
2023-05-16T05:57:23.964Z,1232
2023-05-16T05:58:30.118Z,1244
2023-05-16T05:59:36.284Z,1304
2023-05-16T06:01:48.537Z,1452
2023-05-16T06:02:54.698Z,1464
2023-05-16T06:03:59.852Z,1416
2023-05-16T06:05:05.998Z,1336
2023-05-16T06:07:18.280Z,1192
2023-05-16T06:08:24.424Z,1180
2023-05-16T06:12:49.158Z,1164
2023-05-16T06:13:55.261Z,1156
2023-05-16T06:17:13.682Z,1204
2023-05-16T06:19:25.011Z,1256
2023-05-16T06:20:31.138Z,1256
2023-05-16T06:21:37.282Z,1272
2023-05-16T06:23:49.575Z,1308
2023-05-16T06:24:55.708Z,1344
2023-05-16T06:27:07.995Z,1436
2023-05-16T06:28:14.178Z,1492
2023-05-16T06:29:20.276Z,1552
2023-05-16T06:30:26.413Z,1608
2023-05-16T06:31:32.562Z,1668
2023-05-16T06:32:37.724Z,1740
2023-05-16T06:33:43.876Z,1824
2023-05-16T06:34:50.010Z,1920
2023-05-16T06:41:26.871Z,2396
2023-05-16T06:42:33.027Z,2488
2023-05-16T06:43:39.163Z,2548
2023-05-16T06:44:45.339Z,2640
2023-05-16T06:46:57.587Z,2616
2023-05-16T06:48:02.752Z,2708
2023-05-16T06:49:08.890Z,2804
2023-05-16T06:50:15.040Z,2960
2023-05-16T06:51:21.175Z,3152
2023-05-16T06:53:33.483Z,3576
2023-05-16T06:54:39.733Z,3732
2023-05-16T06:55:45.746Z,3848
2023-05-16T06:56:51.928Z,3968
2023-05-16T06:57:58.029Z,4032
2023-05-16T06:59:04.225Z,4100
2023-05-16T07:00:10.322Z,4148
2023-05-16T07:02:22.612Z,3808
2023-05-16T07:04:33.902Z,3624
2023-05-16T07:05:40.061Z,3544
2023-05-16T07:06:46.197Z,3572
2023-05-16T07:07:52.352Z,3700
2023-05-16T07:08:58.495Z,3804
2023-05-16T07:11:10.773Z,3940
2023-05-16T07:12:16.913Z,3996
2023-05-16T07:13:23.047Z,3752
2023-05-16T07:14:29.202Z,3628
2023-05-16T07:15:35.334Z,3620
2023-05-16T07:16:41.517Z,3596
2023-05-16T07:17:46.678Z,3308
2023-05-16T07:18:52.781Z,2836
2023-05-16T07:19:58.925Z,2968
2023-05-16T07:21:05.065Z,3556
2023-05-16T07:22:11.231Z,3852
2023-05-16T07:23:17.377Z,4124
2023-05-16T07:24:23.498Z,4148
2023-05-16T07:26:35.785Z,3896
2023-05-16T07:27:41.933Z,4376
2023-05-16T07:28:48.078Z,5176
2023-05-16T07:29:54.224Z,5444
2023-05-16T07:31:00.358Z,5816
2023-05-16T07:32:05.526Z,6344
2023-05-16T07:33:11.660Z,6284
2023-05-16T07:34:16.863Z,5744
2023-05-16T07:36:29.116Z,4292
2023-05-16T07:37:34.280Z,3992
2023-05-16T07:38:40.415Z,4076
2023-05-16T07:39:46.560Z,4064
2023-05-16T07:40:52.741Z,4820
2023-05-16T07:43:05.037Z,7572
2023-05-16T07:44:11.181Z,7196
2023-05-16T07:45:17.384Z,6500
2023-05-16T07:46:23.553Z,6132
2023-05-16T07:47:28.779Z,7088
2023-05-16T07:48:33.988Z,7772
2023-05-16T07:49:39.897Z,6892
2023-05-16T07:51:52.171Z,6584
2023-05-16T07:52:58.313Z,6548
2023-05-16T07:56:16.749Z,7792
2023-05-16T07:57:22.922Z,7724
2023-05-16T07:58:29.049Z,7020
2023-05-16T07:59:35.216Z,6628
2023-05-16T08:00:41.314Z,7476
2023-05-16T08:01:47.471Z,7660
2023-05-16T08:02:52.617Z,7356
2023-05-16T08:03:58.759Z,7280
2023-05-16T08:07:17.221Z,7956
2023-05-16T08:08:23.341Z,7776
2023-05-16T08:11:41.770Z,7484
2023-05-16T08:12:47.913Z,6584
2023-05-16T08:13:54.120Z,5980
2023-05-16T08:15:00.218Z,5724
2023-05-16T08:17:12.595Z,5800
2023-05-16T08:18:17.639Z,5964
2023-05-16T08:20:29.930Z,4892
2023-05-16T08:21:36.069Z,4176
2023-05-16T08:22:42.223Z,3620
2023-05-16T08:24:54.497Z,3516
2023-05-16T08:26:00.639Z,3336
2023-05-16T08:28:12.928Z,3804
2023-05-16T08:29:19.066Z,4580
2023-05-16T08:30:25.248Z,4704
2023-05-16T08:32:37.537Z,5212
2023-05-16T08:33:43.667Z,5032
2023-05-16T08:34:48.813Z,4852
2023-05-16T08:35:54.932Z,4604
2023-05-16T08:37:01.099Z,4856
2023-05-16T08:38:07.226Z,5228
2023-05-16T08:41:25.831Z,4776
2023-05-16T08:42:31.953Z,4616
2023-05-16T08:43:38.078Z,4244
2023-05-16T08:44:44.096Z,4044
2023-05-16T08:45:50.435Z,4076
2023-05-16T08:46:56.379Z,4140
2023-05-16T08:48:02.531Z,4336
2023-05-16T08:49:07.668Z,4384
2023-05-16T08:50:13.805Z,4472
2023-05-16T08:52:26.102Z,5068
2023-05-16T08:53:32.253Z,5460
2023-05-16T08:55:44.544Z,5936
2023-05-16T08:57:56.827Z,5660
2023-05-16T09:00:09.232Z,5812
2023-05-16T09:01:14.370Z,6104
2023-05-16T09:02:20.419Z,6336
2023-05-16T09:03:26.690Z,6572
2023-05-16T09:05:39.003Z,6892
2023-05-16T09:06:44.983Z,6904
2023-05-16T09:07:51.124Z,6852
2023-05-16T09:08:57.270Z,6952
2023-05-16T09:10:03.545Z,7080
2023-05-16T09:11:09.551Z,7332
2023-05-16T09:12:15.720Z,7844
2023-05-16T09:14:27.986Z,8768
2023-05-16T09:15:34.167Z,9160
2023-05-16T09:16:39.284Z,9908
2023-05-16T09:18:51.586Z,13768
2023-05-16T09:21:03.868Z,24576
2023-05-16T09:22:10.012Z,23136
2023-05-16T09:23:16.148Z,34304
2023-05-16T09:26:34.605Z,15680
2023-05-16T09:30:59.146Z,22720
2023-05-16T09:32:04.319Z,14528
2023-05-16T09:33:10.460Z,11340
2023-05-16T09:34:16.599Z,9324
2023-05-16T09:35:22.730Z,7324
2023-05-16T09:36:28.890Z,5944
2023-05-16T09:37:35.024Z,5308
2023-05-16T09:39:47.312Z,5696
2023-05-16T09:40:53.482Z,5244
2023-05-16T09:43:05.733Z,4292
2023-05-16T09:44:11.882Z,3508
2023-05-16T09:47:30.312Z,2240
2023-05-16T09:48:35.471Z,1844
2023-05-16T09:49:41.647Z,1700
2023-05-16T09:50:47.745Z,1636
2023-05-16T09:51:53.902Z,1500
2023-05-16T09:53:00.045Z,1532
2023-05-16T09:55:12.349Z,1512
2023-05-16T09:56:18.469Z,1436
2023-05-16T09:57:24.619Z,1336
2023-05-16T09:59:36.898Z,1256
2023-05-16T10:00:43.049Z,1388
2023-05-16T10:01:49.187Z,1712
2023-05-16T10:02:54.391Z,2012
2023-05-16T10:04:00.495Z,1936
2023-05-16T10:05:06.627Z,1360
2023-05-16T10:07:18.911Z,624
2023-05-16T10:09:31.195Z,900
2023-05-16T10:10:37.380Z,1180
2023-05-16T10:11:43.479Z,1356
2023-05-16T10:12:49.669Z,1308
2023-05-16T10:13:55.768Z,744
2023-05-16T10:16:08.068Z,616
2023-05-16T10:17:13.215Z,772
2023-05-16T10:18:19.362Z,948
2023-05-16T10:19:25.533Z,968
2023-05-16T10:20:31.643Z,844
2023-05-16T10:22:43.929Z,640
2023-05-16T10:23:50.091Z,640
2023-05-16T10:24:56.208Z,696
2023-05-16T10:26:02.446Z,764
2023-05-16T10:27:08.503Z,828
2023-05-16T10:29:20.893Z,1540
2023-05-16T10:30:26.930Z,1536
2023-05-16T10:31:33.204Z,1740
2023-05-16T10:32:38.230Z,2720
2023-05-16T10:33:44.386Z,2840
2023-05-16T10:34:50.520Z,2832
2023-05-16T10:35:56.689Z,2848
2023-05-16T10:37:02.851Z,2888
2023-05-16T10:38:08.948Z,3204
2023-05-16T10:39:15.086Z,3656
2023-05-16T10:40:21.234Z,3856
2023-05-16T10:41:27.381Z,3956
2023-05-16T10:42:33.521Z,4052
2023-05-16T10:45:51.955Z,4468
2023-05-16T10:46:58.090Z,4200
2023-05-16T10:48:04.241Z,4068
2023-05-16T10:49:09.421Z,4164
2023-05-16T10:50:15.526Z,4256
2023-05-16T10:51:21.677Z,4232
2023-05-16T10:54:40.103Z,4392
2023-05-16T10:55:46.239Z,4488
2023-05-16T10:56:52.402Z,4764
2023-05-16T10:57:58.535Z,5048
2023-05-16T10:59:04.688Z,5872
2023-05-16T11:00:10.816Z,6816
2023-05-16T11:01:16.959Z,6028
2023-05-16T11:02:23.101Z,5412
2023-05-16T11:03:29.249Z,4332
2023-05-16T11:04:34.412Z,3568
2023-05-16T11:05:40.546Z,3152
2023-05-16T11:06:46.700Z,3544
2023-05-16T11:07:52.835Z,4256
2023-05-16T11:08:59.012Z,4404
2023-05-16T11:10:05.121Z,4476
2023-05-16T11:11:11.274Z,4468
2023-05-16T11:12:17.422Z,3928
2023-05-16T11:13:23.549Z,3640
2023-05-16T11:14:29.709Z,4328
2023-05-16T11:15:35.850Z,5076
2023-05-16T11:16:41.012Z,5176
2023-05-16T11:18:53.291Z,4708
2023-05-16T11:19:58.465Z,4200
2023-05-16T11:22:10.769Z,3396
2023-05-16T11:23:16.907Z,3252
2023-05-16T11:24:23.069Z,4032
2023-05-16T11:25:29.192Z,4436
2023-05-16T11:26:35.397Z,4532
2023-05-16T11:27:41.718Z,4364
2023-05-16T11:28:47.598Z,3836
2023-05-16T11:29:52.786Z,3528
2023-05-16T11:30:57.935Z,3388
2023-05-16T11:32:04.068Z,3128
2023-05-16T11:33:10.221Z,2280
2023-05-16T11:35:22.504Z,2332
2023-05-16T11:36:28.640Z,2096
2023-05-16T11:37:34.821Z,1856
2023-05-16T11:38:40.936Z,1736
2023-05-16T11:39:47.071Z,1544
2023-05-16T11:40:53.205Z,1572
2023-05-16T11:44:11.818Z,2736
2023-05-16T11:45:17.926Z,3704
2023-05-16T11:46:23.102Z,3724
2023-05-16T11:47:29.237Z,3544
2023-05-16T11:48:35.385Z,4152
2023-05-16T11:49:41.525Z,4840
2023-05-16T11:51:53.792Z,4756
2023-05-16T11:52:59.945Z,4604
2023-05-16T11:54:06.093Z,4552
2023-05-16T11:55:12.263Z,5180
2023-05-16T11:59:36.945Z,3808
2023-05-16T12:00:42.070Z,4464
2023-05-16T12:01:48.199Z,5184
2023-05-16T12:05:06.526Z,4936
2023-05-16T12:06:12.670Z,4008
2023-05-16T12:07:18.816Z,4044
2023-05-16T12:09:31.106Z,5516
2023-05-16T12:10:37.262Z,5448
2023-05-16T12:12:49.547Z,3796
2023-05-16T12:13:55.677Z,3792
2023-05-16T12:16:07.959Z,4524
2023-05-16T12:17:14.113Z,3524
2023-05-16T12:18:19.271Z,2704
2023-05-16T12:19:25.407Z,2372
2023-05-16T12:21:37.710Z,2304
2023-05-16T12:22:43.839Z,1864
2023-05-16T12:23:49.980Z,1896
2023-05-16T12:24:56.175Z,1784
2023-05-16T12:26:02.271Z,1664
2023-05-16T12:28:14.554Z,1728
2023-05-16T12:29:20.709Z,1724
2023-05-16T12:32:39.143Z,2148
2023-05-16T12:33:44.300Z,2816
2023-05-16T12:34:50.437Z,2416
2023-05-16T12:38:08.991Z,1036
2023-05-16T12:39:15.132Z,1112
2023-05-16T12:40:21.295Z,1416
2023-05-16T12:41:27.423Z,1428
2023-05-16T12:42:33.710Z,1668
2023-05-16T12:43:39.849Z,1860
2023-05-16T12:44:45.974Z,1628
2023-05-16T12:45:52.128Z,1356
2023-05-16T12:46:58.274Z,1156
2023-05-16T12:49:10.553Z,1248
2023-05-16T12:51:22.833Z,1648
2023-05-16T12:53:35.129Z,1916
2023-05-16T12:59:05.824Z,1584
2023-05-16T13:01:17.135Z,1396
2023-05-16T13:02:23.303Z,1440
2023-05-16T13:03:29.419Z,1420
2023-05-16T13:06:47.873Z,1196
2023-05-16T13:09:00.137Z,1300
2023-05-16T13:10:06.300Z,1328
2023-05-16T13:11:12.426Z,1356
2023-05-16T13:13:24.710Z,1780
2023-05-16T13:14:29.871Z,2180
2023-05-16T13:15:36.018Z,2436
2023-05-16T13:16:42.213Z,2288
2023-05-16T13:17:48.340Z,2200
2023-05-16T13:18:54.451Z,2108
2023-05-16T13:21:06.778Z,2248
2023-05-16T13:22:12.865Z,2232
2023-05-16T13:24:25.176Z,2912
2023-05-16T13:25:31.297Z,3152
2023-05-16T13:26:37.467Z,3620
2023-05-16T13:27:43.581Z,3888
2023-05-16T13:28:48.743Z,4200
2023-05-16T13:31:01.056Z,4596
2023-05-16T13:32:07.183Z,4800
2023-05-16T13:34:19.463Z,4808
2023-05-16T13:35:25.649Z,5376
2023-05-16T13:36:31.748Z,5544
2023-05-16T13:38:44.031Z,4648
2023-05-16T13:43:08.610Z,1928
2023-05-16T13:44:14.753Z,1752
2023-05-16T13:47:32.184Z,3180
2023-05-16T13:49:44.475Z,5392
2023-05-16T13:50:50.644Z,6032
2023-05-16T13:53:02.915Z,5900
2023-05-16T13:56:21.334Z,4840
2023-05-16T13:58:33.618Z,4480
2023-05-16T14:00:44.932Z,5248
2023-05-16T14:02:57.210Z,5636
2023-05-16T14:04:03.352Z,5412
2023-05-16T14:05:09.498Z,4816
2023-05-16T14:07:21.833Z,4196
2023-05-16T14:08:27.959Z,4132
2023-05-16T14:12:52.498Z,3404
2023-05-16T14:13:58.651Z,3224
2023-05-16T14:18:22.232Z,2724
2023-05-16T14:19:28.384Z,2424
2023-05-16T14:20:34.533Z,2344
2023-05-16T14:22:46.817Z,2376
2023-05-16T14:23:52.940Z,2528
2023-05-16T14:28:17.549Z,3680
2023-05-16T14:29:23.787Z,3716
2023-05-16T14:30:29.922Z,3672
2023-05-16T14:31:36.138Z,3468
2023-05-16T14:32:42.217Z,3092
2023-05-16T14:33:48.360Z,2936
2023-05-16T14:37:06.776Z,2652
2023-05-16T14:38:12.923Z,2188
2023-05-16T14:39:19.077Z,2092
2023-05-16T14:40:25.221Z,2076
2023-05-16T14:42:37.501Z,1684
2023-05-16T14:45:54.990Z,2824
2023-05-16T14:47:01.079Z,2928
2023-05-16T14:49:13.374Z,2808
2023-05-16T14:50:19.523Z,2900
2023-05-16T14:52:31.796Z,2428
2023-05-16T14:53:37.942Z,2100
2023-05-16T14:54:44.080Z,1868
2023-05-16T14:56:56.374Z,2120
2023-05-16T14:58:01.530Z,2152
2023-05-16T15:01:19.957Z,3084
2023-05-16T15:02:26.103Z,3456
2023-05-16T15:03:32.246Z,3368
2023-05-16T15:05:44.586Z,2424
2023-05-16T15:06:50.686Z,2336
2023-05-16T15:07:56.881Z,2328
2023-05-16T15:09:02.971Z,2380
2023-05-16T15:10:09.102Z,2652
2023-05-16T15:11:15.239Z,3052
2023-05-16T15:13:26.543Z,3128
2023-05-16T15:14:32.709Z,3212
2023-05-16T15:17:51.122Z,3876
2023-05-16T15:22:15.696Z,4012
2023-05-16T15:23:21.819Z,4004
2023-05-16T15:24:28.055Z,3924
2023-05-16T15:26:40.261Z,3796
2023-05-16T15:27:46.427Z,3748
2023-05-16T15:28:51.586Z,4112
2023-05-16T15:29:57.720Z,4380
2023-05-16T15:31:03.858Z,4776
2023-05-16T15:32:10.006Z,4808
2023-05-16T15:34:22.452Z,5088
2023-05-16T15:36:34.565Z,5044
2023-05-16T15:37:40.756Z,5176
2023-05-16T15:38:46.865Z,5552
2023-05-16T15:39:53.007Z,5848
2023-05-16T15:40:59.133Z,5844
2023-05-16T15:42:05.282Z,5680
2023-05-16T15:43:10.446Z,5028
2023-05-16T15:44:16.603Z,4536
2023-05-16T15:45:22.720Z,4432
2023-05-16T15:46:28.875Z,4228
2023-05-16T15:47:35.021Z,4248
2023-05-16T15:48:41.162Z,4240
2023-05-16T15:50:53.453Z,3608
2023-05-16T15:51:59.585Z,3312
2023-05-16T15:53:05.885Z,3516
2023-05-16T15:54:11.901Z,3928
2023-05-16T15:55:18.012Z,4296
2023-05-16T15:56:24.238Z,4464
2023-05-16T15:58:35.580Z,4832
2023-05-16T15:59:41.745Z,4748
2023-05-16T16:01:53.897Z,4084
2023-05-16T16:03:00.040Z,3880
2023-05-16T16:04:06.176Z,3860
2023-05-16T16:05:12.359Z,3772
2023-05-16T16:07:24.614Z,3268
2023-05-16T16:08:30.750Z,3232
2023-05-16T16:09:37.042Z,3260
2023-05-16T16:11:49.176Z,2844
2023-05-16T16:12:54.349Z,2564
2023-05-16T16:14:00.474Z,2452
2023-05-16T16:15:06.640Z,2380
2023-05-16T16:16:12.847Z,2144
2023-05-16T16:17:18.908Z,1912
2023-05-16T16:18:25.058Z,1972
2023-05-16T16:19:31.512Z,2024
2023-05-16T16:20:37.337Z,2104
2023-05-16T16:21:43.521Z,1932
2023-05-16T16:23:55.769Z,1892
2023-05-16T16:26:07.076Z,2176
2023-05-16T16:27:13.258Z,2136
2023-05-16T16:29:24.533Z,2180
2023-05-16T16:30:29.766Z,2132
2023-05-16T16:31:35.860Z,2048
2023-05-16T16:32:41.987Z,2048
2023-05-16T16:33:48.126Z,1952
2023-05-16T16:34:54.380Z,1864
2023-05-16T16:37:06.573Z,1868
2023-05-16T16:38:12.700Z,1944
2023-05-16T16:40:25.014Z,1992
2023-05-16T16:41:31.188Z,1960
2023-05-16T16:42:37.256Z,1864
2023-05-16T16:43:43.426Z,1744
2023-05-16T16:44:49.727Z,1680
2023-05-16T16:45:55.913Z,1780
2023-05-16T16:47:02.238Z,1852
2023-05-16T16:48:08.096Z,1804
2023-05-16T16:49:14.260Z,1836
2023-05-16T16:50:20.515Z,1784
2023-05-16T16:51:26.532Z,1700
2023-05-16T16:52:32.672Z,1620
2023-05-16T16:53:38.930Z,1780
2023-05-16T16:54:44.966Z,1788
2023-05-16T16:56:57.248Z,1748
2023-05-16T16:59:09.535Z,1508
2023-05-16T17:01:20.975Z,1560
2023-05-16T17:02:27.128Z,1492
2023-05-16T17:04:39.322Z,1684
2023-05-16T17:05:45.405Z,1756
2023-05-16T17:06:51.683Z,1888
2023-05-16T17:07:57.707Z,1976
2023-05-16T17:09:03.840Z,1976
2023-05-16T17:10:09.994Z,1932
2023-05-16T17:11:16.157Z,1852
2023-05-16T17:13:28.471Z,1784
2023-05-16T17:15:40.785Z,1628
2023-05-16T17:16:45.864Z,1592
2023-05-16T17:17:52.001Z,1480
2023-05-16T17:18:58.187Z,1456
2023-05-16T17:21:10.434Z,1164
2023-05-16T17:23:22.763Z,1024
2023-05-16T17:25:35.001Z,1040
2023-05-16T17:26:41.149Z,936
2023-05-16T17:27:47.312Z,924
2023-05-16T17:29:59.651Z,848
2023-05-16T17:31:04.868Z,852
2023-05-16T17:33:17.032Z,1140
2023-05-16T17:34:23.163Z,1132
2023-05-16T17:35:29.373Z,1072
2023-05-16T17:37:41.639Z,804
2023-05-16T17:38:47.737Z,708
2023-05-16T17:39:53.927Z,752
2023-05-16T17:41:00.015Z,808
2023-05-16T17:42:06.207Z,816
2023-05-16T17:43:12.319Z,804
2023-05-16T17:45:24.637Z,720
2023-05-16T17:46:30.743Z,632
2023-05-16T17:47:35.986Z,576
2023-05-16T17:48:42.045Z,572
2023-05-16T17:52:00.513Z,684
2023-05-16T17:53:06.609Z,740
2023-05-16T17:55:18.903Z,500
2023-05-16T17:57:31.282Z,460
2023-05-16T17:58:37.330Z,404
2023-05-16T17:59:43.466Z,432
2023-05-16T18:00:49.614Z,452
2023-05-16T18:01:54.916Z,428
2023-05-16T18:03:00.933Z,432
2023-05-16T18:04:07.054Z,516
2023-05-16T18:05:13.218Z,444
2023-05-16T18:07:25.492Z,444
2023-05-16T18:08:31.686Z,432
2023-05-16T18:09:37.775Z,376
2023-05-16T18:10:43.966Z,352
2023-05-16T18:11:50.114Z,340
2023-05-16T18:12:56.225Z,288
2023-05-16T18:14:02.458Z,288
2023-05-16T18:15:08.493Z,228
2023-05-16T18:16:13.707Z,208
2023-05-16T18:17:19.805Z,196
2023-05-16T18:20:38.228Z,164
2023-05-16T18:21:44.371Z,156
2023-05-16T18:22:50.516Z,156
2023-05-16T18:23:56.654Z,152
2023-05-16T18:25:02.860Z,140
2023-05-16T18:26:09.117Z,132
2023-05-16T18:27:15.141Z,136
2023-05-16T18:28:21.226Z,136
2023-05-16T18:29:27.473Z,132
2023-05-16T18:30:32.590Z,128
2023-05-16T18:31:38.695Z,128
2023-05-16T18:32:44.821Z,128
2023-05-16T18:33:51.007Z,124
2023-05-16T18:36:03.251Z,108
2023-05-16T18:40:27.826Z,96
2023-05-16T18:41:33.953Z,92
2023-05-16T18:42:40.138Z,88
2023-05-16T18:43:46.263Z,80
2023-05-16T18:44:51.480Z,76
2023-05-16T18:45:57.549Z,72
2023-05-16T18:48:09.841Z,60
2023-05-16T18:49:16.010Z,52
2023-05-16T18:50:22.113Z,48
2023-05-16T18:53:40.661Z,32
2023-05-16T18:54:46.871Z,28
2023-05-16T18:55:52.985Z,24
2023-05-16T18:56:59.081Z,24
2023-05-16T18:58:05.127Z,20
2023-05-16T18:59:10.425Z,20
2023-05-16T19:01:22.662Z,20
2023-05-16T19:02:28.789Z,16
2023-05-16T19:03:34.876Z,12
2023-05-16T19:04:41.021Z,12
2023-05-16T19:05:47.140Z,8
2023-05-16T19:06:53.274Z,8
2023-05-16T19:07:59.633Z,8
2023-05-16T19:10:11.760Z,4
2023-05-16T19:11:17.958Z,4
2023-05-16T19:12:24.027Z,8
2023-05-16T19:13:29.320Z,4
2023-05-16T19:14:35.298Z,4
2023-05-16T19:16:47.581Z,4
2023-05-16T19:17:53.729Z,0
2023-05-16T19:18:59.883Z,0
2023-05-16T19:20:06.024Z,4
2023-05-16T19:21:12.168Z,0
2023-05-16T19:22:18.300Z,0
2023-05-16T19:25:36.741Z,0
2023-05-16T19:26:42.952Z,0
2023-05-16T19:27:49.245Z,0
2023-05-16T19:30:01.474Z,0
2023-05-16T19:31:07.588Z,0
2023-05-16T19:32:13.730Z,0
2023-05-16T19:34:26.003Z,0
2023-05-16T19:35:32.166Z,0
2023-05-16T19:36:38.309Z,0
2023-05-16T19:37:44.495Z,0
2023-05-16T19:39:56.737Z,0
2023-05-16T19:41:03.049Z,0
2023-05-16T19:42:09.075Z,0
2023-05-16T19:43:14.296Z,0
2023-05-16T19:44:20.435Z,0
2023-05-16T19:45:26.669Z,0
2023-05-16T19:47:38.933Z,0
2023-05-16T19:49:51.170Z,0
2023-05-16T19:50:57.328Z,0
2023-05-16T19:52:03.345Z,0
2023-05-16T19:54:15.596Z,0
2023-05-16T19:55:21.878Z,0
2023-05-16T19:56:28.078Z,0
2023-05-16T19:57:34.313Z,0
2023-05-16T20:00:52.577Z,0
2023-05-16T20:01:58.955Z,0
2023-05-16T20:04:11.032Z,0
2023-05-16T20:05:17.184Z,0
2023-05-16T20:06:23.398Z,0
2023-05-16T20:08:35.717Z,0
2023-05-16T20:09:41.878Z,0
2023-05-16T20:10:48.016Z,0
2023-05-16T20:11:53.049Z,0
2023-05-16T20:12:59.185Z,0
2023-05-16T20:15:11.454Z,0
2023-05-16T20:16:17.629Z,0
2023-05-16T20:19:36.123Z,0
2023-05-16T20:20:42.171Z,0
2023-05-16T20:22:54.514Z,0
2023-05-16T20:25:06.817Z,0
2023-05-16T20:26:11.907Z,0
2023-05-16T20:27:18.049Z,0
2023-05-16T20:28:24.208Z,0
2023-05-16T20:31:42.658Z,0
2023-05-16T20:33:54.920Z,0
2023-05-16T20:35:01.126Z,0
2023-05-16T20:36:07.212Z,0
2023-05-16T20:37:13.332Z,0
2023-05-16T20:40:31.766Z,0
2023-05-16T20:41:38.056Z,0
2023-05-16T20:42:44.192Z,0
2023-05-16T20:43:50.335Z,0
2023-05-16T20:44:56.467Z,0
2023-05-16T20:46:02.689Z,0
2023-05-16T20:48:14.983Z,0
2023-05-16T20:49:21.143Z,0
2023-05-16T20:50:27.293Z,0
2023-05-16T20:51:33.434Z,0
2023-05-16T20:53:45.770Z,0
2023-05-16T20:54:51.869Z,0
2023-05-16T20:55:57.075Z,0
2023-05-16T20:57:03.238Z,0
2023-05-16T20:58:09.322Z,0
2023-05-16T20:59:15.562Z,0
2023-05-16T21:00:21.647Z,0
2023-05-16T21:01:27.766Z,0
2023-05-16T21:02:33.960Z,0
2023-05-16T21:04:46.225Z,0
2023-05-16T21:05:52.308Z,0
2023-05-16T21:09:10.872Z,0
2023-05-16T21:10:15.968Z,0
2023-05-16T21:11:22.093Z,0
2023-05-16T21:13:34.371Z,0
2023-05-16T21:14:40.476Z,0
2023-05-16T21:15:46.694Z,0
2023-05-16T21:17:58.923Z,0
2023-05-16T21:19:05.108Z,0
2023-05-16T21:21:17.358Z,0
2023-05-16T21:23:29.737Z,0
2023-05-16T21:24:34.830Z,0
2023-05-16T21:25:40.935Z,0
2023-05-16T21:26:47.078Z,0
2023-05-16T21:27:53.243Z,0
2023-05-16T21:30:05.505Z,0
2023-05-16T21:32:17.788Z,0
2023-05-16T21:33:23.932Z,0
2023-05-16T21:34:30.149Z,0
2023-05-16T21:35:36.227Z,0